Date,TemperatureHighF,TemperatureAvgF,TemperatureLowF,DewpointHighF,DewpointAvgF,DewpointLowF,HumidityHigh,HumidityAvg,HumidityLow,PressureMaxIn,PressureMinIn,WindSpeedMaxMPH,WindSpeedAvgMPH,GustSpeedMaxMPH,PrecipitationSumIn
2014-1-1,35.1,27.7,24.1,34.6,27.2,23.4,98,98,96,29.86,29.50,4,0,6,0.00
2014-1-18,42.6,39.8,38.8,40.1,36.7,34.7,96,89,76,29.89,29.56,15,9,19,0.00
2014-1-19,41.0,39.5,37.6,37.7,35.8,32.5,95,87,73,30.09,29.89,11,5,17,0.00
2014-1-20,37.6,35.0,32.5,36.3,34.4,32.0,98,98,92,30.12,30.01,6,1,6,0.03
2014-1-21,34.5,33.3,32.5,34.0,32.8,32.0,98,98,98,30.04,29.89,2,0,3,0.14
2014-1-22,45.0,36.9,32.9,44.4,36.3,32.4,98,98,98,30.06,29.95,10,2,14,0.29
2014-1-23,46.0,45.3,44.4,45.5,44.8,43.9,98,98,98,30.21,30.06,17,12,24,0.16
2014-1-24,50.4,41.1,34.3,45.5,38.9,33.8,98,92,73,30.27,30.21,11,2,18,0.00
2014-1-25,52.3,36.9,31.6,44.1,34.9,31.1,98,93,64,30.27,30.15,3,0,3,0.00
2014-1-26,53.8,36.9,29.7,44.4,32.8,29.2,98,86,58,30.21,29.92,4,1,6,0.00
2014-1-27,52.3,36.1,30.2,37.9,30.1,25.6,96,79,55,29.95,29.89,4,1,8,0.00
2014-1-28,34.9,33.6,31.5,34.4,33.0,30.2,98,98,95,30.01,29.95,1,0,2,0.04
2014-1-29,40.5,35.0,34.0,39.9,34.5,33.5,98,98,98,29.98,29.92,2,0,4,0.00
2014-1-30,52.9,35.6,27.5,36.2,30.9,25.2,98,85,51,30.01,29.98,3,1,4,0.00
2014-1-31,40.5,29.8,26.1,31.6,27.3,23.4,98,91,68,30.06,29.98,4,1,5,0.00
2014-2-1,52.0,37.6,32.9,29.9,23.1,18.3,85,56,41,30.24,30.06,3,1,5,0.00
2014-2-2,51.6,36.1,30.7,27.5,18.7,14.0,54,49,38,30.42,30.24,3,1,4,0.00
2014-2-3,44.1,30.6,24.3,21.3,12.6,7.0,52,47,38,30.66,30.42,3,1,6,0.00
2014-2-4,39.7,25.8,19.8,15.6,7.2,3.6,49,45,35,30.69,30.63,3,1,4,0.00
2014-2-5,39.9,23.3,14.9,16.8,6.0,1.5,57,47,33,30.69,30.42,3,2,5,0.00
2014-2-6,43.7,24.3,15.3,17.9,5.6,1.2,55,45,34,30.42,29.83,3,1,4,0.00
2014-2-7,36.5,23.4,14.4,14.6,6.7,1.6,57,48,39,30.12,29.83,4,2,7,0.00
2014-2-8,30.7,21.9,18.7,9.9,3.8,1.4,47,45,41,30.21,30.09,3,2,6,0.00
2014-2-9,23.4,20.6,15.4,3.7,1.8,-2.1,45,43,42,30.09,30.06,4,2,6,0.00
2014-2-10,23.4,23.4,23.4,3.7,3.7,3.7,42,42,42,30.09,29.92,4,2,7,0.00
2014-2-11,24.6,17.7,4.3,3.7,-7.2,-28.7,42,32,15,29.95,29.47,4,2,8,0.00
2014-2-12,12.2,6.1,2.5,-22.8,-27.3,-30.0,16,16,16,29.56,29.44,4,2,6,0.00
2014-2-13,22.5,12.3,6.1,20.2,-6.8,-27.3,91,50,16,29.44,29.21,2,0,4,0.00
2014-2-14,26.6,22.3,18.1,25.6,20.8,15.2,98,94,88,29.21,28.94,3,1,4,0.00
2014-2-19,32.7,32.7,32.7,32.2,32.2,32.2,98,98,98,29.62,29.56,1,1,2,0.05
2014-2-20,32.7,32.7,32.7,32.2,32.2,32.2,98,98,98,30.04,29.62,1,1,2,0.00
2014-2-21,32.7,32.7,32.7,32.2,32.2,32.2,98,98,98,30.27,30.04,1,1,2,0.00
2014-2-22,32.7,32.7,32.7,32.2,32.2,32.2,98,98,98,30.45,30.27,1,1,2,0.00
2014-2-23,36.3,29.4,19.2,32.2,21.2,1.7,98,76,31,30.42,30.09,4,2,5,0.00
2014-2-24,41.9,25.0,16.5,15.7,5.5,-0.1,51,43,30,30.12,30.06,4,2,7,0.00
2014-2-25,21.6,20.6,18.1,5.8,5.1,3.8,53,50,50,30.12,30.12,3,2,4,0.00
2014-2-28,50.2,34.7,27.0,48.8,13.8,9.8,95,42,34,30.01,29.59,7,2,7,0.00
2014-3-1,47.7,29.9,20.7,18.3,9.9,3.6,58,44,22,30.06,29.89,3,1,4,0.00
2014-3-2,39.0,26.5,16.0,9.5,2.5,-12.7,48,36,13,30.01,29.89,4,2,6,0.00
2014-3-3,37.4,20.9,10.2,10.6,-5.1,-18.2,53,35,10,29.98,29.86,3,2,5,0.00
2014-3-4,36.0,17.1,8.2,11.6,-2.6,-9.7,48,41,18,30.06,29.95,3,2,3,0.00
2014-3-5,12.9,11.4,10.2,-4.4,-5.6,-6.6,44,44,44,30.01,29.83,2,2,2,0.00
2014-3-14,12.7,12.7,12.7,-4.5,-4.5,-4.5,44,44,44,29.68,29.42,4,4,5,0.03
2014-3-15,41.5,30.6,12.7,33.1,19.4,-4.5,86,63,44,29.71,29.39,4,3,6,0.00
2014-3-16,40.8,37.4,34.2,29.8,27.1,24.3,84,66,55,29.74,29.42,15,11,19,0.00
2014-3-22,47.5,33.9,29.7,17.6,11.5,9.9,44,39,29,30.39,30.33,3,1,4,0.00
2014-3-23,51.6,34.7,27.3,24.1,12.0,7.8,44,39,24,30.42,30.33,4,2,6,0.00
2014-3-24,32.2,31.7,31.1,11.2,10.4,9.6,41,40,40,30.36,30.33,2,1,3,0.00
2014-4-2,55.4,41.7,34.9,30.2,22.3,18.6,51,46,37,29.68,29.59,3,2,6,0.00
2014-4-3,57.9,39.9,32.4,29.7,20.2,16.0,52,46,30,29.62,29.59,4,2,5,0.00
2014-4-5,40.1,39.0,38.7,37.8,37.4,36.9,96,94,89,29.56,29.47,6,6,11,0.00
2014-4-6,47.3,40.7,37.4,40.3,37.6,33.6,98,89,71,29.71,29.53,12,10,17,0.03
2014-4-7,43.3,39.7,33.4,41.7,37.2,32.9,98,91,79,29.53,29.15,14,10,19,1.05
2014-4-8,42.6,38.9,35.2,39.4,36.4,30.6,98,91,63,29.50,29.27,17,10,20,0.04
2014-4-9,39.6,36.9,34.9,36.9,34.5,29.7,98,91,76,29.59,29.47,13,8,17,0.00
2014-4-10,43.5,35.6,32.5,35.8,27.3,16.6,98,74,51,29.89,29.53,5,2,5,0.03
2014-4-11,56.5,39.3,29.5,25.9,17.9,13.0,54,43,27,30.21,29.89,3,3,3,0.00
2014-4-12,48.9,36.7,27.3,26.8,19.0,14.2,61,49,37,30.27,30.18,3,3,3,0.00
2014-4-13,50.2,39.2,29.7,30.2,22.9,16.1,64,52,40,30.21,30.01,3,3,3,0.00
2014-4-14,60.4,44.7,34.3,35.0,28.4,21.3,67,54,38,30.01,29.68,3,3,3,0.00
2014-4-15,55.9,44.1,36.1,38.8,33.1,28.1,78,66,51,29.80,29.71,3,3,3,0.00
2014-4-16,60.4,46.3,40.1,44.0,36.4,29.7,94,70,45,29.80,29.39,3,3,3,0.09
2014-4-17,48.2,43.1,36.9,42.1,35.3,28.4,91,74,60,29.42,29.27,3,3,3,0.03
2014-4-18,44.6,43.0,39.6,42.1,40.8,38.0,94,92,91,29.59,29.42,3,3,3,0.00
2014-4-22,39.6,39.6,39.6,38.0,38.0,38.0,94,94,94,29.56,29.53,3,3,3,0.00
2014-4-23,39.6,39.6,39.6,38.0,38.0,38.0,94,94,94,29.68,29.56,3,3,3,0.08
2014-4-24,39.6,39.6,39.6,38.0,38.0,38.0,94,94,94,29.68,29.56,3,3,3,0.09
2014-4-25,39.6,39.6,39.6,38.0,38.0,38.0,94,94,94,29.74,29.56,3,3,3,0.00
2014-4-26,53.1,42.0,39.6,38.0,36.4,30.2,94,83,48,29.56,29.36,3,3,3,0.00
2014-4-27,63.9,48.6,37.6,39.7,34.0,28.5,74,58,39,29.56,29.33,7,3,10,0.00
2014-4-28,46.0,43.1,43.0,41.4,41.3,38.2,94,93,74,29.95,29.56,10,4,14,0.00
2014-4-29,43.0,43.0,43.0,41.4,41.4,41.4,94,94,94,30.18,29.92,11,3,13,0.00
2014-4-30,43.0,43.0,43.0,41.4,41.4,41.4,94,94,94,30.27,30.15,4,2,6,0.00
2014-5-1,72.1,49.2,43.0,41.4,38.9,30.6,94,75,26,30.30,30.12,4,1,5,0.00
2014-5-2,78.6,63.3,52.0,41.4,32.8,26.5,44,33,22,30.18,30.01,3,1,3,0.00
2014-5-3,76.1,58.0,43.7,41.7,20.7,-18.0,57,33,2,30.06,29.89,3,0,4,0.00
2014-5-4,64.2,51.4,39.7,41.3,32.5,24.3,58,49,39,29.92,29.77,5,1,6,0.00
2014-5-5,59.5,51.8,41.9,41.6,36.9,26.9,68,57,49,29.92,29.80,8,3,8,0.00
2014-5-6,59.5,49.7,46.2,40.4,39.9,39.7,78,70,49,29.98,29.86,9,3,10,0.00
2014-5-7,46.2,46.2,46.2,39.7,39.7,39.7,78,78,78,29.86,29.65,6,1,6,0.00
2014-5-8,66.0,54.2,46.2,46.2,40.2,33.1,78,61,41,29.65,29.53,4,1,5,0.00
2014-5-9,50.4,48.9,47.7,36.3,34.4,33.3,62,57,54,29.62,29.59,1,0,2,0.00
2014-5-10,63.7,58.3,39.6,50.4,47.9,38.0,94,69,50,30.09,29.59,6,2,8,0.00
2014-5-11,57.9,54.1,49.5,55.9,51.6,48.6,98,92,75,30.18,30.09,6,1,8,0.00
2014-5-12,54.5,54.5,54.5,52.2,52.2,52.2,92,92,92,30.21,30.09,9,1,9,0.00
2014-5-13,54.5,54.5,54.5,52.2,52.2,52.2,92,92,92,30.18,30.01,11,2,12,0.00
2014-5-14,54.5,53.5,50.2,52.2,50.6,49.6,98,90,84,30.27,30.04,4,1,6,0.00
2014-5-15,54.3,50.4,49.3,49.6,42.2,40.6,84,73,69,30.27,30.06,3,1,5,0.00
2014-5-16,50.2,50.2,50.2,41.9,41.9,41.9,73,73,73,30.06,29.80,3,1,4,0.00
2014-5-17,50.2,50.2,50.2,41.9,41.9,41.9,73,73,73,29.80,29.71,4,1,4,0.00
2014-5-18,50.2,50.2,50.2,41.9,41.9,41.9,73,73,73,29.74,29.62,9,4,16,0.00
2014-5-19,50.2,50.2,50.2,41.9,41.9,41.9,73,73,73,29.68,29.56,9,4,14,0.00
2014-5-20,50.2,50.2,50.2,41.9,41.9,41.9,73,73,73,29.80,29.68,9,4,12,0.00
2014-5-21,50.2,50.2,50.2,41.9,41.9,41.9,73,73,73,29.83,29.59,8,4,10,0.00
2014-5-22,50.2,50.2,50.2,41.9,41.9,41.9,73,73,73,29.59,29.50,9,3,10,0.00
2014-5-23,50.2,50.2,50.2,41.9,41.9,41.9,73,73,73,29.86,29.56,10,4,15,0.00
2014-5-24,60.8,53.1,46.6,41.9,38.9,33.4,73,60,46,29.95,29.86,7,4,10,0.00
2014-5-25,64.6,53.7,40.5,44.4,38.3,32.1,81,58,40,29.95,29.77,7,3,7,0.00
2014-5-26,66.0,55.9,43.0,44.5,37.6,31.2,67,51,37,30.01,29.83,6,2,8,0.00
2014-5-27,56.7,53.3,50.0,45.4,41.8,36.8,77,65,56,30.12,30.01,10,5,13,0.00
2014-5-28,54.7,51.9,49.5,44.9,42.1,39.7,78,69,63,30.12,30.01,8,5,12,0.00
2014-5-29,50.4,47.7,47.1,44.7,43.5,42.6,87,85,76,30.04,30.01,8,3,11,0.00
2014-5-30,47.3,47.3,47.3,43.6,43.6,43.6,87,87,87,30.04,29.92,10,5,13,0.00
2014-5-31,47.3,47.3,47.3,43.6,43.6,43.6,87,87,87,30.15,29.89,14,9,20,0.00
2014-6-1,47.3,47.3,47.3,43.6,43.6,43.6,87,87,87,30.18,30.06,10,6,14,0.00
2014-6-4,39.6,39.6,39.6,38.0,38.0,38.0,94,94,94,30.09,30.06,7,5,8,0.00
2014-6-6,39.6,39.6,39.6,38.0,38.0,38.0,94,94,94,29.95,29.89,5,2,8,0.00
2014-6-7,39.6,39.6,39.6,38.0,38.0,38.0,94,94,94,29.92,29.77,7,2,11,0.09
2014-6-17,47.8,47.8,47.8,42.6,42.6,42.6,82,82,82,29.74,29.71,9,6,14,0.00
2014-6-18,47.8,47.8,47.8,42.6,42.6,42.6,82,82,82,29.86,29.74,13,7,17,0.00
2014-6-19,47.8,47.8,47.8,42.6,42.6,42.6,82,82,82,29.86,29.56,5,1,5,0.00
2014-6-20,47.8,47.8,47.8,42.6,42.6,42.6,82,82,82,29.83,29.50,12,5,18,0.25
2014-6-21,47.8,47.8,47.8,42.6,42.6,42.6,82,82,82,29.86,29.77,9,2,11,0.00
2014-6-22,47.8,47.8,47.8,42.6,42.6,42.6,82,82,82,29.86,29.68,3,0,3,0.57
2014-6-23,47.8,47.8,47.8,42.6,42.6,42.6,82,82,82,29.83,29.71,2,0,3,0.42
2014-6-24,47.8,47.8,47.8,42.6,42.6,42.6,82,82,82,29.86,29.68,12,4,14,0.04
2014-6-25,47.8,47.8,47.8,42.6,42.6,42.6,82,82,82,29.86,29.77,12,7,17,0.00
2014-6-26,47.8,47.8,47.8,42.6,42.6,42.6,82,82,82,29.77,29.53,3,0,4,0.00
2014-6-27,47.8,47.8,47.8,42.6,42.6,42.6,82,82,82,29.56,29.36,5,1,7,0.00
2014-6-28,47.8,47.8,47.8,42.6,42.6,42.6,82,82,82,29.74,29.44,5,1,8,0.21
2014-6-29,47.8,47.8,47.8,42.6,42.6,42.6,82,82,82,29.77,29.74,0,0,0,0.04
2014-7-23,62.1,60.1,59.0,52.7,50.3,47.8,79,70,60,29.86,29.80,8,5,11,0.00
2014-7-24,64.6,58.2,53.1,55.0,51.8,48.2,97,80,69,29.80,29.77,6,2,8,0.00
2014-7-25,55.2,54.6,53.8,54.7,54.0,53.2,98,98,98,29.80,29.77,9,5,13,0.07
2014-8-6,57.6,57.6,57.6,53.4,53.4,53.4,86,86,86,29.95,29.92,8,4,12,0.00
2014-8-7,57.6,57.6,57.6,53.4,53.4,53.4,86,86,86,29.95,29.80,7,4,9,0.00
2014-8-8,57.6,57.6,57.6,53.4,53.4,53.4,86,86,86,29.83,29.83,3,2,4,0.00
2014-8-16,58.8,57.2,55.9,55.3,54.3,52.8,96,90,82,30.01,29.92,9,5,15,0.00
2014-8-17,56.3,55.0,54.0,55.7,53.9,52.8,98,96,95,29.92,29.68,13,8,19,0.20
2014-8-18,56.1,56.1,56.1,55.6,55.6,55.6,98,98,98,29.83,29.74,10,6,18,0.05
2014-8-19,62.6,59.1,56.1,55.6,55.1,54.6,98,87,75,29.89,29.83,5,1,6,0.00
2014-8-20,62.6,62.6,62.6,54.6,54.6,54.6,75,75,75,29.92,29.83,3,1,4,0.00
2014-8-21,85.5,65.8,56.8,55.9,52.2,44.4,75,64,33,30.06,29.92,3,1,6,0.00
2014-8-22,67.1,57.8,51.6,54.6,50.7,47.7,89,78,59,30.09,30.01,4,1,4,0.00
2014-8-23,70.2,59.8,52.9,59.9,53.5,51.2,95,81,60,30.04,29.98,5,1,7,0.00
2014-8-24,56.1,54.2,52.0,55.0,52.2,50.0,98,93,90,30.04,29.86,3,0,4,0.00
2014-8-26,58.1,58.1,58.1,52.6,52.6,52.6,82,82,82,29.86,29.80,2,2,0,0.00
2014-8-27,58.1,58.1,58.1,52.6,52.6,52.6,82,82,82,29.95,29.86,2,2,0,0.00
2014-8-28,58.1,58.1,58.1,52.6,52.6,52.6,82,82,82,29.92,29.65,2,2,0,0.00
2014-8-29,58.1,58.1,58.1,52.6,52.6,52.6,82,82,82,29.65,29.44,2,2,0,0.03
2014-8-30,58.1,58.1,58.1,52.6,52.6,52.6,82,82,82,29.56,29.47,2,2,0,0.00
2014-8-31,58.1,58.1,58.1,52.6,52.6,52.6,82,82,82,29.62,29.56,2,2,0,0.22
2014-9-1,58.1,58.1,58.1,52.6,52.6,52.6,82,82,82,29.83,29.59,2,2,0,0.63
2014-9-2,58.1,58.1,58.1,52.6,52.6,52.6,82,82,82,29.92,29.80,2,2,0,0.00
2014-9-3,58.1,58.1,58.1,52.6,52.6,52.6,82,82,82,29.98,29.86,2,2,0,0.00
2014-9-4,58.1,58.1,58.1,52.6,52.6,52.6,82,82,82,30.04,29.86,2,2,0,0.00
2014-9-5,58.1,58.0,57.7,56.9,54.7,52.6,97,89,82,29.95,29.89,2,2,0,0.00
2014-9-6,57.9,57.9,57.9,56.8,56.8,56.8,96,96,96,29.95,29.77,2,2,0,0.20
2014-9-7,57.9,57.9,57.9,56.8,56.8,56.8,96,96,96,29.95,29.74,2,2,0,0.30
2014-9-8,57.9,57.9,57.9,56.8,56.8,56.8,96,96,96,30.04,29.95,2,2,0,0.00
2014-9-9,57.9,57.9,57.9,56.8,56.8,56.8,96,96,96,30.18,30.04,2,2,0,0.00
2014-9-10,57.9,57.9,57.9,56.8,56.8,56.8,96,96,96,30.18,30.09,2,2,0,0.00
2014-9-11,57.9,57.9,57.9,56.8,56.8,56.8,96,96,96,30.24,30.09,2,2,0,0.07
2014-9-12,57.9,57.9,57.9,56.8,56.8,56.8,96,96,96,30.24,30.06,2,2,0,0.00
2014-9-13,57.9,57.9,57.9,56.8,56.8,56.8,96,96,96,30.06,29.92,2,2,0,0.00
2014-9-14,57.9,57.9,57.9,56.8,56.8,56.8,96,96,96,29.95,29.80,2,2,0,0.00
2014-9-15,57.9,57.9,57.9,56.8,56.8,56.8,96,96,96,29.80,29.77,2,2,0,0.13
2014-9-16,57.9,57.9,57.9,56.8,56.8,56.8,96,96,96,29.77,29.68,2,2,0,0.17
2014-9-17,57.9,57.9,57.9,56.8,56.8,56.8,96,96,96,29.71,29.44,2,2,0,0.00
2014-9-18,57.9,57.9,57.9,56.8,56.8,56.8,96,96,96,29.44,29.44,2,2,0,0.00